createdAt,value
2023-01-23T00:00:19.199Z,20.02
2023-01-23T00:02:47.925Z,19.83
2023-01-23T00:05:16.517Z,20.50
2023-01-23T00:07:46.267Z,20.33
2023-01-23T00:10:15.006Z,20.80
2023-01-23T00:12:43.757Z,20.33
2023-01-23T00:15:14.018Z,21.52
2023-01-23T00:17:42.574Z,19.13
2023-01-23T00:20:13.130Z,19.63
2023-01-23T00:25:11.457Z,19.75
2023-01-23T00:27:39.906Z,18.73
2023-01-23T00:30:10.762Z,20.80
2023-01-23T00:32:39.198Z,19.43
2023-01-23T00:35:08.470Z,19.67
2023-01-23T00:37:36.807Z,18.15
2023-01-23T00:40:06.616Z,18.80
2023-01-23T00:42:36.404Z,19.20
2023-01-23T00:45:05.590Z,18.88
2023-01-23T00:47:34.076Z,19.10
2023-01-23T00:50:02.444Z,19.03
2023-01-23T00:52:30.768Z,19.07
2023-01-23T00:54:59.122Z,19.33
2023-01-23T00:57:27.402Z,20.53
2023-01-23T00:59:57.117Z,20.87
2023-01-23T01:02:25.683Z,19.40
2023-01-23T01:04:54.682Z,19.17
2023-01-23T01:07:23.711Z,19.63
2023-01-23T01:09:52.297Z,18.88
2023-01-23T01:12:20.735Z,21.13
2023-01-23T01:14:49.248Z,18.92
2023-01-23T01:17:19.036Z,18.67
2023-01-23T01:19:49.572Z,18.77
2023-01-23T01:22:17.943Z,19.48
2023-01-23T01:24:46.553Z,18.75
2023-01-23T01:27:14.920Z,19.90
2023-01-23T01:29:43.331Z,19.63
2023-01-23T01:32:11.834Z,18.80
2023-01-23T01:34:41.587Z,19.00
2023-01-23T01:39:39.466Z,18.45
2023-01-23T01:42:07.956Z,19.37
2023-01-23T01:44:56.006Z,17.83
2023-01-23T01:47:24.562Z,19.07
2023-01-23T01:49:58.785Z,18.00
2023-01-23T01:52:27.793Z,18.97
2023-01-23T01:54:59.979Z,18.47
2023-01-23T01:57:33.690Z,18.25
2023-01-23T02:00:09.038Z,18.00
2023-01-23T02:02:49.542Z,20.05
2023-01-23T02:05:22.788Z,19.47
2023-01-23T02:07:55.954Z,19.30
2023-01-23T02:10:25.562Z,18.88
2023-01-23T02:12:56.419Z,18.93
2023-01-23T02:15:25.014Z,19.65
2023-01-23T02:17:55.835Z,19.52
2023-01-23T02:20:29.406Z,18.30
2023-01-23T02:23:08.830Z,19.60
2023-01-23T02:25:54.535Z,20.80
2023-01-23T02:28:23.299Z,18.17
2023-01-23T02:30:52.133Z,19.97
2023-01-23T02:33:48.376Z,20.73
2023-01-23T02:36:18.358Z,19.35
2023-01-23T02:39:01.393Z,20.52
2023-01-23T02:41:35.656Z,20.10
2023-01-23T02:44:09.349Z,20.53
2023-01-23T02:46:39.206Z,19.50
2023-01-23T02:49:07.663Z,19.63
2023-01-23T02:51:36.469Z,20.23
2023-01-23T02:54:05.612Z,20.27
2023-01-23T02:56:36.047Z,20.43
2023-01-23T02:59:21.829Z,20.02
2023-01-23T03:01:51.543Z,20.17
2023-01-23T03:04:21.015Z,19.80
2023-01-23T03:06:49.366Z,21.13
2023-01-23T03:09:18.819Z,20.73
2023-01-23T03:11:48.840Z,20.42
2023-01-23T03:14:21.713Z,21.02
2023-01-23T03:16:52.743Z,20.17
2023-01-23T03:19:25.235Z,20.80
2023-01-23T03:21:54.695Z,21.58
2023-01-23T03:24:23.823Z,21.65
2023-01-23T03:26:53.734Z,20.97
2023-01-23T03:29:44.573Z,22.57
2023-01-23T03:32:16.536Z,21.50
2023-01-23T03:34:46.389Z,21.23
2023-01-23T03:37:17.533Z,21.70
2023-01-23T03:40:05.624Z,21.97
2023-01-23T03:42:37.291Z,22.40
2023-01-23T03:45:09.056Z,21.77
2023-01-23T03:47:38.074Z,22.83
2023-01-23T03:50:10.134Z,21.95
2023-01-23T03:52:40.800Z,22.97
2023-01-23T03:55:10.885Z,22.70
2023-01-23T03:57:41.583Z,22.90
2023-01-23T04:00:13.729Z,24.38
2023-01-23T04:02:42.433Z,21.80
2023-01-23T04:05:13.960Z,22.67
2023-01-23T04:07:42.503Z,22.07
2023-01-23T04:10:13.246Z,22.93
2023-01-23T04:12:45.524Z,23.60
2023-01-23T04:15:14.808Z,23.20
2023-01-23T04:17:43.394Z,24.07
2023-01-23T04:20:13.457Z,22.93
2023-01-23T04:22:44.283Z,23.33
2023-01-23T04:25:15.214Z,22.42
2023-01-23T04:27:45.167Z,22.77
2023-01-23T04:30:14.931Z,22.45
2023-01-23T04:32:46.435Z,23.48
2023-01-23T04:35:16.804Z,23.57
2023-01-23T04:37:45.784Z,23.10
2023-01-23T04:40:15.163Z,22.20
2023-01-23T04:42:55.674Z,21.80
2023-01-23T04:45:34.430Z,23.05
2023-01-23T04:48:22.694Z,22.13
2023-01-23T04:50:52.160Z,22.77
2023-01-23T04:53:23.851Z,22.65
2023-01-23T04:55:59.353Z,22.35
2023-01-23T04:58:30.724Z,23.35
2023-01-23T05:01:08.323Z,21.90
2023-01-23T05:03:37.740Z,23.53
2023-01-23T05:06:06.913Z,22.57
2023-01-23T05:08:35.436Z,23.33
2023-01-23T05:11:19.841Z,22.48
2023-01-23T05:13:50.311Z,23.63
2023-01-23T05:16:19.792Z,22.50
2023-01-23T05:19:06.863Z,23.97
2023-01-23T05:21:36.051Z,23.55
2023-01-23T05:24:04.771Z,23.30
2023-01-23T05:26:35.108Z,23.07
2023-01-23T05:29:05.203Z,24.20
2023-01-23T05:31:37.306Z,23.73
2023-01-23T05:34:41.063Z,24.20
2023-01-23T05:37:18.613Z,24.20
2023-01-23T05:39:51.333Z,23.25
2023-01-23T05:42:23.047Z,23.85
2023-01-23T05:44:52.906Z,23.10
2023-01-23T05:47:30.241Z,23.20
2023-01-23T05:50:01.189Z,24.10
2023-01-23T05:52:33.900Z,23.08
2023-01-23T05:55:02.640Z,25.13
2023-01-23T05:57:31.283Z,24.30
2023-01-23T06:00:36.365Z,24.73
2023-01-23T06:03:25.637Z,25.43
2023-01-23T06:06:08.866Z,24.27
2023-01-23T06:08:37.350Z,24.08
2023-01-23T06:11:06.228Z,25.13
2023-01-23T06:13:34.729Z,24.90
2023-01-23T06:16:05.293Z,26.00
2023-01-23T06:18:33.949Z,25.10
2023-01-23T06:21:03.167Z,25.33
2023-01-23T06:23:32.392Z,26.60
2023-01-23T06:26:02.962Z,25.42
2023-01-23T06:28:32.699Z,26.63
2023-01-23T06:31:07.268Z,26.17
2023-01-23T06:33:45.100Z,27.17
2023-01-23T06:36:14.297Z,27.13
2023-01-23T06:38:42.859Z,27.40
2023-01-23T06:41:13.906Z,27.13
2023-01-23T06:43:49.966Z,26.23
2023-01-23T06:46:24.877Z,27.60
2023-01-23T06:48:55.111Z,27.60
2023-01-23T06:51:23.862Z,26.80
2023-01-23T06:53:52.799Z,27.27
2023-01-23T06:56:23.899Z,27.20
2023-01-23T06:58:54.134Z,27.52
2023-01-23T07:01:29.683Z,27.43
2023-01-23T07:04:17.110Z,26.80
2023-01-23T07:06:46.536Z,27.33
2023-01-23T07:09:17.567Z,27.55
2023-01-23T07:11:52.688Z,25.90
2023-01-23T07:14:23.900Z,25.58
2023-01-23T07:16:55.722Z,25.47
2023-01-23T07:19:24.175Z,25.83
2023-01-23T07:21:52.811Z,26.50
2023-01-23T07:24:21.418Z,25.93
2023-01-23T07:26:49.844Z,25.83
2023-01-23T07:29:20.357Z,24.73
2023-01-23T07:34:18.628Z,23.45
2023-01-23T07:36:47.123Z,24.80
2023-01-23T07:39:16.157Z,25.83
2023-01-23T07:41:46.394Z,25.07
2023-01-23T07:44:18.827Z,25.17
2023-01-23T07:46:48.274Z,25.58
2023-01-23T07:49:19.330Z,26.83
2023-01-23T07:51:47.799Z,25.43
2023-01-23T07:54:16.400Z,26.23
2023-01-23T07:56:44.940Z,27.33
2023-01-23T07:59:13.980Z,27.23
2023-01-23T08:01:42.676Z,26.17
2023-01-23T08:04:11.193Z,25.17
2023-01-23T08:06:41.083Z,25.27
2023-01-23T08:09:09.881Z,24.77
2023-01-23T08:11:38.299Z,26.08
2023-01-23T08:14:07.178Z,26.67
2023-01-23T08:16:36.032Z,25.05
2023-01-23T08:19:09.240Z,27.60
2023-01-23T08:21:37.710Z,25.45
2023-01-23T08:24:08.738Z,25.92
2023-01-23T08:26:37.313Z,25.15
2023-01-23T08:29:06.190Z,25.80
2023-01-23T08:31:36.058Z,24.65
2023-01-23T08:34:05.277Z,25.98
2023-01-23T08:36:34.005Z,25.27
2023-01-23T08:39:02.557Z,24.90
2023-01-23T08:41:32.429Z,25.90
2023-01-23T08:44:01.863Z,26.33
2023-01-23T08:46:30.699Z,26.20
2023-01-23T08:49:05.413Z,26.10
2023-01-23T08:51:34.425Z,25.35
2023-01-23T08:54:02.825Z,26.35
2023-01-23T08:56:32.650Z,27.17
2023-01-23T08:59:01.210Z,25.42
2023-01-23T09:01:29.733Z,25.42
2023-01-23T09:03:58.847Z,25.92
2023-01-23T09:06:27.405Z,27.02
2023-01-23T09:08:55.925Z,26.50
2023-01-23T09:11:24.391Z,25.90
2023-01-23T09:13:54.329Z,26.30
2023-01-23T09:16:22.833Z,25.83
2023-01-23T09:18:51.321Z,25.38
2023-01-23T09:21:19.841Z,25.38
2023-01-23T09:23:48.414Z,25.05
2023-01-23T09:26:19.556Z,23.40
2023-01-23T09:28:48.322Z,24.48
2023-01-23T09:31:19.343Z,25.13
2023-01-23T09:33:49.847Z,23.95
2023-01-23T09:36:33.654Z,23.83
2023-01-23T09:39:09.401Z,23.10
2023-01-23T09:41:39.795Z,23.92
2023-01-23T09:44:16.934Z,23.38
2023-01-23T09:46:50.907Z,24.55
2023-01-23T09:49:27.021Z,24.35
2023-01-23T09:52:01.267Z,24.58
2023-01-23T09:54:46.639Z,24.20
2023-01-23T09:57:18.577Z,23.35
2023-01-23T10:00:00.794Z,25.10
2023-01-23T10:02:31.026Z,23.73
2023-01-23T10:05:02.987Z,24.30
2023-01-23T10:07:55.769Z,24.75
2023-01-23T10:10:49.706Z,23.63
2023-01-23T10:13:36.885Z,24.50
2023-01-23T10:16:50.499Z,24.25
2023-01-23T10:19:45.371Z,24.83
2023-01-23T10:22:34.526Z,24.30
2023-01-23T10:25:11.701Z,25.58
2023-01-23T10:27:44.101Z,25.05
2023-01-23T10:30:28.308Z,23.33
2023-01-23T10:33:02.560Z,27.63
2023-01-23T10:35:42.027Z,26.03
2023-01-23T10:38:29.147Z,27.13
2023-01-23T10:41:17.808Z,26.15
2023-01-23T10:43:49.048Z,26.00
2023-01-23T10:46:20.247Z,26.20
2023-01-23T10:48:51.027Z,26.08
2023-01-23T10:54:31.380Z,24.25
2023-01-23T10:57:02.886Z,25.10
2023-01-23T10:59:36.509Z,24.52
2023-01-23T11:02:22.103Z,25.17
2023-01-23T11:04:52.881Z,22.73
2023-01-23T11:09:56.299Z,24.00
2023-01-23T11:12:26.921Z,23.20
2023-01-23T11:17:44.615Z,22.77
2023-01-23T11:20:25.676Z,23.00
2023-01-23T11:23:08.517Z,22.50
2023-01-23T11:25:39.901Z,22.10
2023-01-23T11:28:24.838Z,24.60
2023-01-23T11:31:12.244Z,23.15
2023-01-23T11:33:47.837Z,21.60
2023-01-23T11:36:39.666Z,21.75
2023-01-23T11:39:20.338Z,22.65
2023-01-23T11:44:21.129Z,22.95
2023-01-23T11:47:29.612Z,22.45
2023-01-23T11:50:17.152Z,22.35
2023-01-23T11:52:59.254Z,21.80
2023-01-23T11:55:46.892Z,20.55
2023-01-23T11:58:50.825Z,20.80
2023-01-23T12:01:25.184Z,20.48
2023-01-23T12:04:22.944Z,19.60
2023-01-23T12:07:17.695Z,20.08
2023-01-23T12:10:02.070Z,18.73
2023-01-23T12:13:00.140Z,19.50
2023-01-23T12:15:35.811Z,19.63
2023-01-23T12:18:17.269Z,20.52
2023-01-23T12:20:55.452Z,20.75
2023-01-23T12:23:40.164Z,20.55
2023-01-23T12:26:15.751Z,19.48
2023-01-23T12:29:15.678Z,18.80
2023-01-23T12:32:01.788Z,19.03
2023-01-23T12:34:52.200Z,19.40
2023-01-23T12:37:43.426Z,18.48
2023-01-23T12:40:17.095Z,18.17
2023-01-23T12:42:53.986Z,18.20
2023-01-23T12:45:26.261Z,19.00
2023-01-23T12:48:04.955Z,20.05
2023-01-23T12:50:43.669Z,18.98
2023-01-23T12:53:15.856Z,20.73
2023-01-23T12:55:57.222Z,19.08
2023-01-23T12:58:29.695Z,19.17
2023-01-23T13:01:14.262Z,19.10
2023-01-23T13:04:05.390Z,19.38
2023-01-23T13:07:31.516Z,19.55
2023-01-23T13:10:59.289Z,19.60
2023-01-23T13:13:28.878Z,19.30
2023-01-23T13:16:13.396Z,19.45
2023-01-23T13:19:15.103Z,18.60
2023-01-23T13:22:06.671Z,19.50
2023-01-23T13:25:03.024Z,19.60
2023-01-23T13:27:51.331Z,16.77
2023-01-23T13:31:04.798Z,18.23
2023-01-23T13:33:58.818Z,16.80
2023-01-23T13:36:35.931Z,18.48
2023-01-23T13:39:28.004Z,18.52
2023-01-23T13:42:45.782Z,18.23
2023-01-23T13:45:29.800Z,17.48
2023-01-23T14:21:55.100Z,16.70
2023-01-23T14:24:26.426Z,17.13
2023-01-23T14:27:07.480Z,16.48
2023-01-23T14:29:36.259Z,15.95
2023-01-23T14:32:05.136Z,16.10
2023-01-23T14:34:40.968Z,16.13
2023-01-23T14:37:13.715Z,16.85
2023-01-23T14:39:53.096Z,15.95
2023-01-23T14:42:29.482Z,16.10
2023-01-23T14:45:01.925Z,16.38
2023-01-23T14:47:35.298Z,16.65
2023-01-23T14:50:05.324Z,14.73
2023-01-23T14:52:35.166Z,14.95
2023-01-23T14:55:08.028Z,15.32
2023-01-23T14:57:37.834Z,14.57
2023-01-23T15:00:08.889Z,14.68
2023-01-23T15:02:37.812Z,14.15
2023-01-23T15:05:16.734Z,14.10
2023-01-23T15:07:49.384Z,15.07
2023-01-23T15:10:20.833Z,14.35
2023-01-23T15:12:56.068Z,14.20
2023-01-23T15:15:26.610Z,14.35
2023-01-23T15:20:38.404Z,14.82
2023-01-23T15:23:31.544Z,15.82
2023-01-23T15:26:34.523Z,16.10
2023-01-23T15:29:06.046Z,16.83
2023-01-23T15:31:36.813Z,17.13
2023-01-23T15:34:28.039Z,17.13
2023-01-23T15:37:01.228Z,17.33
2023-01-23T15:39:34.236Z,18.52
2023-01-23T15:42:05.789Z,18.77
2023-01-23T15:44:34.558Z,19.15
2023-01-23T15:47:04.356Z,19.10
2023-01-23T15:49:36.110Z,18.80
2023-01-23T15:52:21.436Z,20.27
2023-01-23T15:54:53.477Z,20.70
2023-01-23T15:57:21.937Z,20.52
2023-01-23T15:59:50.381Z,21.67
2023-01-23T16:02:30.639Z,20.00
2023-01-23T16:05:01.163Z,21.70
2023-01-23T16:07:35.010Z,21.70
2023-01-23T16:10:18.025Z,19.17
2023-01-23T16:12:50.654Z,18.80
2023-01-23T16:15:21.690Z,18.27
2023-01-23T16:17:50.982Z,19.42
2023-01-23T16:20:23.374Z,19.85
2023-01-23T16:22:54.575Z,18.95
2023-01-23T16:25:43.148Z,21.08
2023-01-23T16:28:14.528Z,18.90
2023-01-23T16:30:43.475Z,18.08
2023-01-23T16:33:12.140Z,18.20
2023-01-23T16:35:41.281Z,17.50
2023-01-23T16:38:21.458Z,17.83
2023-01-23T16:40:53.343Z,17.23
2023-01-23T16:43:22.547Z,16.45
2023-01-23T16:45:53.692Z,17.02
2023-01-23T16:48:28.283Z,18.20
2023-01-23T16:51:01.986Z,19.92
2023-01-23T16:53:32.874Z,17.80
2023-01-23T16:56:04.636Z,18.30
2023-01-23T16:58:40.144Z,18.52
2023-01-23T17:01:15.106Z,18.48
2023-01-23T17:03:43.848Z,18.13
2023-01-23T17:06:15.595Z,17.38
2023-01-23T17:08:44.569Z,17.77
2023-01-23T17:11:22.843Z,20.85
2023-01-23T17:13:58.680Z,17.95
2023-01-23T17:16:28.264Z,28.55
2023-01-23T17:19:01.156Z,19.58
2023-01-23T17:21:34.035Z,18.48
2023-01-23T17:24:02.831Z,16.75
2023-01-23T17:26:32.739Z,18.00
2023-01-23T17:29:01.179Z,16.95
2023-01-23T17:31:32.694Z,17.23
2023-01-23T17:34:03.104Z,17.20
2023-01-23T17:36:31.602Z,17.98
2023-01-23T17:39:01.173Z,16.25
2023-01-23T17:41:31.571Z,16.38
2023-01-23T17:44:02.105Z,17.23
2023-01-23T17:46:34.206Z,16.42
2023-01-23T17:49:02.758Z,15.98
2023-01-23T17:51:32.775Z,15.95
2023-01-23T17:54:01.219Z,16.70
2023-01-23T17:56:29.623Z,17.85
2023-01-23T17:58:58.096Z,17.52
2023-01-23T18:01:28.331Z,16.85
2023-01-23T18:03:56.754Z,16.38
2023-01-23T18:06:25.144Z,16.73
2023-01-23T18:08:53.819Z,16.27
2023-01-23T18:11:24.772Z,17.63
2023-01-23T18:14:26.205Z,16.30
2023-01-23T18:16:57.000Z,15.70
2023-01-23T18:21:58.184Z,16.37
2023-01-23T18:24:30.586Z,15.90
2023-01-23T18:27:01.744Z,15.65
2023-01-23T18:29:44.484Z,16.85
2023-01-23T18:32:50.020Z,15.75
2023-01-23T18:35:30.517Z,15.30
2023-01-23T18:38:09.161Z,14.48
2023-01-23T18:40:45.314Z,15.90
2023-01-23T18:43:32.719Z,16.67
2023-01-23T18:46:02.215Z,17.15
2023-01-23T18:48:32.847Z,18.00
2023-01-23T18:53:48.017Z,17.48
2023-01-23T18:56:29.865Z,18.45
2023-01-23T18:59:12.993Z,18.98
2023-01-23T19:01:53.483Z,18.30
2023-01-23T19:04:34.448Z,19.33
2023-01-23T19:07:04.210Z,19.20
2023-01-23T19:09:36.215Z,20.13
2023-01-23T19:12:25.782Z,20.13
2023-01-23T19:15:10.113Z,20.70
2023-01-23T19:17:47.452Z,20.25
2023-01-23T19:20:30.222Z,20.30
2023-01-23T19:23:22.612Z,20.58
2023-01-23T19:25:51.435Z,21.08
2023-01-23T19:28:24.176Z,21.48
2023-01-23T19:30:53.465Z,21.70
2023-01-23T19:33:23.422Z,21.35
2023-01-23T19:35:56.872Z,21.15
2023-01-23T19:38:26.663Z,21.75
2023-01-23T19:40:56.965Z,21.17
2023-01-23T19:43:27.302Z,20.10
2023-01-23T19:45:56.540Z,19.98
2023-01-23T19:48:25.095Z,21.27
2023-01-23T19:50:54.939Z,20.27
2023-01-23T19:53:24.275Z,21.17
2023-01-23T19:55:52.882Z,22.55
2023-01-23T19:58:21.474Z,22.92
2023-01-23T20:00:50.294Z,21.20
2023-01-23T20:03:18.674Z,21.48
2023-01-23T20:05:47.095Z,22.38
2023-01-23T20:08:17.329Z,22.48
2023-01-23T20:10:45.793Z,23.67
2023-01-23T20:13:15.158Z,23.75
2023-01-23T20:15:44.040Z,25.50
2023-01-23T20:18:12.923Z,26.95
2023-01-23T20:20:41.360Z,26.35
2023-01-23T20:23:10.125Z,26.48
2023-01-23T20:25:40.014Z,26.92
2023-01-23T20:28:08.550Z,27.95
2023-01-23T20:30:37.118Z,27.17
2023-01-23T20:33:08.343Z,27.55
2023-01-23T20:35:39.784Z,26.65
2023-01-23T20:38:08.257Z,28.73
2023-01-23T20:40:36.692Z,29.00
2023-01-23T20:43:06.617Z,28.98
2023-01-23T20:45:35.076Z,28.73
2023-01-23T20:48:03.490Z,29.55
2023-01-23T20:50:32.240Z,29.80
2023-01-23T20:53:19.273Z,28.35
2023-01-23T20:55:53.970Z,29.07
2023-01-23T20:58:41.543Z,30.63
2023-01-23T21:01:10.562Z,31.17
2023-01-23T21:03:40.322Z,28.65
2023-01-23T21:06:09.869Z,29.85
2023-01-23T21:08:38.777Z,28.55
2023-01-23T21:11:08.825Z,29.30
2023-01-23T21:13:38.937Z,30.00
2023-01-23T21:16:12.057Z,30.67
2023-01-23T21:18:44.694Z,31.55
2023-01-23T21:21:16.178Z,30.25
2023-01-23T21:23:46.920Z,31.58
2023-01-23T21:26:16.015Z,33.35
2023-01-23T21:28:47.983Z,32.88
2023-01-23T21:31:23.178Z,31.05
2023-01-23T21:33:52.342Z,32.33
2023-01-23T21:36:24.476Z,31.73
2023-01-23T21:38:54.122Z,32.47
2023-01-23T21:41:23.165Z,30.77
2023-01-23T21:43:53.001Z,32.35
2023-01-23T21:46:24.929Z,31.17
2023-01-23T21:48:53.379Z,31.15
2023-01-23T21:51:27.797Z,31.88
2023-01-23T21:53:56.495Z,29.98
2023-01-23T21:56:25.840Z,30.30
2023-01-23T21:58:56.084Z,32.78
2023-01-23T22:01:42.599Z,31.77
2023-01-23T22:04:13.556Z,30.48
2023-01-23T22:06:44.294Z,31.83
2023-01-23T22:09:17.385Z,32.60
2023-01-23T22:11:46.319Z,30.08
2023-01-23T22:14:16.462Z,31.60
2023-01-23T22:16:50.331Z,32.17
2023-01-23T22:19:24.516Z,32.10
2023-01-23T22:21:54.176Z,31.55
2023-01-23T22:24:22.720Z,30.83
2023-01-23T22:26:51.460Z,32.05
2023-01-23T22:29:23.168Z,31.27
2023-01-23T22:31:52.382Z,30.77
2023-01-23T22:34:21.124Z,30.42
2023-01-23T22:36:49.603Z,30.08
2023-01-23T22:39:19.697Z,31.00
2023-01-23T22:41:50.246Z,30.83
2023-01-23T22:46:51.772Z,29.48
2023-01-23T22:49:22.319Z,32.00
2023-01-23T22:51:51.504Z,32.00
2023-01-23T22:54:19.941Z,29.58
2023-01-23T22:56:48.417Z,29.42
2023-01-23T22:59:16.962Z,30.17
2023-01-23T23:01:46.749Z,29.08
2023-01-23T23:04:15.192Z,30.80
2023-01-23T23:06:43.787Z,29.52
2023-01-23T23:09:12.272Z,29.55
2023-01-23T23:11:40.867Z,30.17
2023-01-23T23:14:12.120Z,29.63
2023-01-23T23:16:41.012Z,29.50
2023-01-23T23:19:13.441Z,30.45
2023-01-23T23:21:42.148Z,31.15
2023-01-23T23:24:14.193Z,29.17
2023-01-23T23:26:42.701Z,28.83
2023-01-23T23:29:11.090Z,29.57
2023-01-23T23:31:39.599Z,30.03
2023-01-23T23:34:12.338Z,31.13
2023-01-23T23:36:41.089Z,31.93
2023-01-23T23:39:09.554Z,29.83
2023-01-23T23:41:37.931Z,31.10
2023-01-23T23:44:06.769Z,30.50
2023-01-23T23:46:35.224Z,29.92
2023-01-23T23:49:03.846Z,29.70
2023-01-23T23:51:33.643Z,30.13
2023-01-23T23:54:02.042Z,29.40
2023-01-23T23:56:32.141Z,29.43
2023-01-23T23:59:00.737Z,30.48
